createdAt,value
2023-01-19T00:00:55.456Z,69.87
2023-01-19T00:03:22.326Z,69.44
2023-01-19T00:05:49.251Z,69.56
2023-01-19T00:08:16.625Z,69.23
2023-01-19T00:10:51.081Z,69.12
2023-01-19T00:13:18.020Z,69.34
2023-01-19T00:15:46.010Z,68.95
2023-01-19T00:18:12.849Z,69.07
2023-01-19T00:20:40.862Z,68.62
2023-01-19T00:23:08.354Z,68.83
2023-01-19T00:25:36.283Z,69.08
2023-01-19T00:28:03.236Z,68.80
2023-01-19T00:30:30.517Z,68.42
2023-01-19T00:32:57.348Z,68.94
2023-01-19T00:35:24.213Z,68.65
2023-01-19T00:37:51.154Z,68.35
2023-01-19T00:40:18.537Z,68.15
2023-01-19T00:42:48.200Z,67.95
2023-01-19T00:45:21.366Z,68.68
2023-01-19T00:47:50.297Z,69.05
2023-01-19T00:50:17.309Z,68.65
2023-01-19T00:52:45.545Z,68.65
2023-01-19T00:55:14.824Z,68.43
2023-01-19T00:57:42.793Z,68.70
2023-01-19T01:00:16.981Z,67.97
2023-01-19T01:02:44.810Z,68.26
2023-01-19T01:05:12.624Z,67.80
2023-01-19T01:07:41.312Z,67.82
2023-01-19T01:10:24.435Z,67.50
2023-01-19T01:12:56.618Z,67.78
2023-01-19T01:15:39.416Z,67.65
2023-01-19T01:18:06.221Z,68.01
2023-01-19T01:20:34.768Z,68.07
2023-01-19T01:23:02.156Z,68.48
2023-01-19T01:25:30.959Z,68.62
2023-01-19T01:27:57.871Z,68.69
2023-01-19T01:30:24.735Z,68.40
2023-01-19T01:32:51.543Z,68.41
2023-01-19T01:35:18.606Z,68.48
2023-01-19T01:37:45.637Z,68.43
2023-01-19T01:40:16.351Z,68.31
2023-01-19T01:42:44.235Z,68.07
2023-01-19T01:45:39.438Z,68.57
2023-01-19T01:48:27.974Z,68.39
2023-01-19T01:51:19.494Z,68.47
2023-01-19T01:53:52.390Z,68.61
2023-01-19T01:56:26.183Z,68.75
2023-01-19T01:58:53.439Z,68.69
2023-01-19T02:01:38.924Z,68.49
2023-01-19T02:04:05.842Z,68.44
2023-01-19T02:06:32.693Z,68.43
2023-01-19T02:09:27.401Z,68.24
2023-01-19T02:12:13.897Z,67.93
2023-01-19T02:14:40.694Z,67.84
2023-01-19T02:17:07.887Z,67.92
2023-01-19T02:19:42.378Z,68.42
2023-01-19T02:22:51.270Z,68.07
2023-01-19T02:25:20.140Z,68.20
2023-01-19T02:27:48.042Z,68.91
2023-01-19T02:30:16.778Z,69.24
2023-01-19T02:32:43.869Z,69.43
2023-01-19T02:35:12.006Z,69.78
2023-01-19T02:37:40.602Z,70.45
2023-01-19T02:40:12.997Z,70.22
2023-01-19T02:42:52.317Z,69.99
2023-01-19T02:45:22.932Z,70.57
2023-01-19T02:47:52.711Z,70.42
2023-01-19T02:50:49.118Z,69.94
2023-01-19T02:53:43.476Z,70.49
2023-01-19T02:56:24.768Z,70.48
2023-01-19T02:59:30.563Z,70.66
2023-01-19T03:02:20.548Z,70.58
2023-01-19T03:05:19.701Z,70.83
2023-01-19T03:08:12.946Z,70.26
2023-01-19T03:10:54.522Z,70.43
2023-01-19T03:13:41.773Z,70.81
2023-01-19T03:16:22.577Z,70.35
2023-01-19T03:19:24.209Z,70.73
2023-01-19T03:22:01.705Z,70.53
2023-01-19T03:24:37.942Z,70.98
2023-01-19T03:27:13.666Z,70.95
2023-01-19T03:29:47.436Z,70.79
2023-01-19T03:32:18.048Z,70.83
2023-01-19T03:34:48.889Z,70.96
2023-01-19T03:37:17.713Z,71.02
2023-01-19T03:39:44.614Z,71.17
2023-01-19T03:42:17.981Z,70.81
2023-01-19T03:44:50.421Z,71.10
2023-01-19T03:47:18.104Z,71.36
2023-01-19T03:49:47.083Z,71.12
2023-01-19T03:52:14.119Z,71.12
2023-01-19T03:54:41.202Z,70.95
2023-01-19T03:57:08.267Z,70.94
2023-01-19T03:59:35.068Z,70.95
2023-01-19T04:02:02.303Z,70.88
2023-01-19T04:04:29.175Z,70.90
2023-01-19T04:06:56.046Z,70.85
2023-01-19T04:09:22.968Z,70.75
2023-01-19T04:11:49.837Z,70.80
2023-01-19T04:14:16.825Z,70.54
2023-01-19T04:16:43.642Z,70.56
2023-01-19T04:19:10.459Z,70.77
2023-01-19T04:21:37.272Z,70.89
2023-01-19T04:24:04.186Z,71.13
2023-01-19T04:26:30.986Z,70.70
2023-01-19T04:28:58.379Z,70.61
2023-01-19T04:31:25.295Z,71.02
2023-01-19T04:33:52.186Z,71.11
2023-01-19T04:36:19.024Z,70.88
2023-01-19T04:38:46.623Z,71.01
2023-01-19T04:41:13.524Z,70.77
2023-01-19T04:43:40.876Z,71.00
2023-01-19T04:46:07.781Z,71.27
2023-01-19T04:48:34.905Z,70.86
2023-01-19T04:51:01.679Z,70.93
2023-01-19T04:53:28.542Z,71.46
2023-01-19T04:55:55.549Z,71.36
2023-01-19T04:58:23.054Z,71.15
2023-01-19T05:00:51.132Z,71.36
2023-01-19T05:03:19.278Z,71.29
2023-01-19T05:05:46.621Z,71.40
2023-01-19T05:08:13.629Z,70.98
2023-01-19T05:10:40.549Z,71.08
2023-01-19T05:13:07.403Z,71.10
2023-01-19T05:15:34.190Z,71.33
2023-01-19T05:18:01.091Z,71.21
2023-01-19T05:20:27.944Z,71.22
2023-01-19T05:22:54.848Z,71.85
2023-01-19T05:25:21.744Z,71.08
2023-01-19T05:27:48.621Z,71.07
2023-01-19T05:30:15.876Z,71.30
2023-01-19T05:32:42.767Z,71.08
2023-01-19T05:35:10.153Z,70.81
2023-01-19T05:37:37.121Z,70.68
2023-01-19T05:40:04.671Z,71.05
2023-01-19T05:42:32.909Z,70.91
2023-01-19T05:45:00.215Z,70.40
2023-01-19T05:47:29.432Z,70.67
2023-01-19T05:49:56.302Z,70.69
2023-01-19T05:52:24.926Z,70.93
2023-01-19T05:54:52.159Z,71.01
2023-01-19T05:57:19.141Z,70.41
2023-01-19T05:59:45.999Z,70.86
2023-01-19T06:02:13.047Z,70.67
2023-01-19T06:04:39.883Z,70.04
2023-01-19T06:07:07.133Z,69.98
2023-01-19T06:09:34.123Z,69.64
2023-01-19T06:12:01.014Z,69.79
2023-01-19T06:14:27.941Z,69.84
2023-01-19T06:16:54.801Z,69.88
2023-01-19T06:19:21.581Z,69.54
2023-01-19T06:21:52.089Z,69.83
2023-01-19T06:24:19.342Z,69.52
2023-01-19T06:26:46.287Z,69.79
2023-01-19T06:29:13.735Z,69.79
2023-01-19T06:31:41.935Z,69.69
2023-01-19T06:34:09.314Z,69.50
2023-01-19T06:36:36.740Z,69.21
2023-01-19T06:39:05.869Z,69.55
2023-01-19T06:41:33.969Z,69.26
2023-01-19T06:44:01.493Z,69.18
2023-01-19T06:46:29.787Z,69.16
2023-01-19T06:48:57.069Z,69.27
2023-01-19T06:51:24.404Z,69.63
2023-01-19T06:53:51.277Z,69.54
2023-01-19T06:56:18.352Z,69.52
2023-01-19T06:58:48.149Z,69.72
2023-01-19T07:01:15.218Z,69.42
2023-01-19T07:03:42.295Z,69.51
2023-01-19T07:06:09.269Z,69.36
2023-01-19T07:08:37.719Z,69.11
2023-01-19T07:11:23.657Z,69.39
2023-01-19T07:13:57.896Z,68.99
2023-01-19T07:16:25.382Z,68.66
2023-01-19T07:18:52.280Z,68.90
2023-01-19T07:21:19.316Z,69.03
2023-01-19T07:23:49.941Z,69.10
2023-01-19T07:26:21.030Z,69.27
2023-01-19T07:28:48.652Z,68.88
2023-01-19T07:31:15.988Z,68.19
2023-01-19T07:33:42.946Z,68.15
2023-01-19T07:36:10.235Z,68.03
2023-01-19T07:38:37.073Z,67.84
2023-01-19T07:41:06.885Z,67.85
2023-01-19T07:43:34.430Z,68.24
2023-01-19T07:46:03.886Z,67.83
2023-01-19T07:48:30.894Z,67.70
2023-01-19T07:51:05.343Z,67.31
2023-01-19T07:53:32.868Z,67.49
2023-01-19T07:55:59.795Z,67.11
2023-01-19T07:58:27.579Z,67.08
2023-01-19T08:00:54.693Z,67.15
2023-01-19T08:03:21.721Z,67.23
2023-01-19T08:05:53.110Z,66.97
2023-01-19T08:08:20.427Z,66.95
2023-01-19T08:10:50.956Z,66.95
2023-01-19T08:13:18.558Z,66.94
2023-01-19T08:15:45.453Z,66.47
2023-01-19T08:18:14.702Z,66.04
2023-01-19T08:20:41.683Z,66.77
2023-01-19T08:23:08.843Z,65.94
2023-01-19T08:25:45.219Z,66.32
2023-01-19T08:28:15.396Z,66.05
2023-01-19T08:30:46.273Z,66.17
2023-01-19T08:33:13.928Z,65.95
2023-01-19T08:35:43.463Z,64.63
2023-01-19T08:38:10.841Z,64.00
2023-01-19T08:40:40.456Z,63.75
2023-01-19T08:43:14.007Z,64.68
2023-01-19T08:45:48.109Z,65.11
2023-01-19T08:48:18.647Z,65.10
2023-01-19T08:50:49.816Z,66.49
2023-01-19T08:53:17.834Z,66.70
2023-01-19T08:55:44.664Z,66.79
2023-01-19T08:58:11.500Z,66.51
2023-01-19T09:00:39.470Z,66.55
2023-01-19T09:03:09.105Z,66.59
2023-01-19T09:05:38.922Z,66.26
2023-01-19T09:08:10.067Z,65.56
2023-01-19T09:10:38.057Z,64.21
2023-01-19T09:13:11.478Z,64.23
2023-01-19T09:15:39.787Z,64.50
2023-01-19T09:18:10.422Z,65.80
2023-01-19T09:20:39.033Z,64.92
2023-01-19T09:23:06.592Z,64.43
2023-01-19T09:25:33.455Z,63.56
2023-01-19T09:28:02.414Z,63.49
2023-01-19T09:30:29.503Z,62.72
2023-01-19T09:32:58.049Z,62.02
2023-01-19T09:35:26.198Z,61.24
2023-01-19T09:37:53.066Z,60.74
2023-01-19T09:40:21.082Z,60.47
2023-01-19T09:42:57.320Z,60.04
2023-01-19T09:46:00.647Z,58.75
2023-01-19T09:48:45.785Z,57.33
2023-01-19T09:51:28.040Z,58.29
2023-01-19T09:54:16.648Z,57.86
2023-01-19T09:56:45.781Z,57.48
2023-01-19T09:59:25.002Z,55.51
2023-01-19T10:02:19.737Z,56.30
2023-01-19T10:05:04.248Z,55.51
2023-01-19T10:07:54.336Z,56.09
2023-01-19T10:10:31.415Z,55.88
2023-01-19T10:13:12.976Z,55.61
2023-01-19T10:15:53.175Z,56.18
2023-01-19T10:18:35.754Z,55.82
2023-01-19T10:21:11.364Z,53.43
2023-01-19T10:24:18.315Z,52.41
2023-01-19T10:26:54.526Z,51.96
2023-01-19T10:29:38.167Z,51.35
2023-01-19T10:32:17.266Z,51.70
2023-01-19T10:34:44.379Z,51.38
2023-01-19T10:37:17.130Z,51.47
2023-01-19T10:39:53.226Z,50.74
2023-01-19T10:42:20.425Z,50.29
2023-01-19T10:44:47.362Z,50.17
2023-01-19T10:47:20.437Z,49.70
2023-01-19T10:49:48.597Z,51.23
2023-01-19T10:52:34.081Z,49.53
2023-01-19T10:55:06.250Z,49.16
2023-01-19T10:57:40.763Z,46.71
2023-01-19T11:00:43.135Z,50.95
2023-01-19T11:03:23.359Z,52.10
2023-01-19T11:05:51.032Z,49.51
2023-01-19T11:08:30.220Z,51.29
2023-01-19T11:11:04.467Z,50.83
2023-01-19T11:13:32.444Z,49.72
2023-01-19T11:16:29.598Z,51.29
2023-01-19T11:18:58.608Z,51.00
2023-01-19T11:21:28.022Z,48.97
2023-01-19T11:24:05.418Z,48.37
2023-01-19T11:26:49.485Z,49.29
2023-01-19T11:29:26.840Z,50.90
2023-01-19T11:31:55.370Z,51.39
2023-01-19T11:34:32.712Z,52.24
2023-01-19T11:37:08.880Z,50.99
2023-01-19T11:39:58.739Z,48.45
2023-01-19T11:42:28.544Z,47.14
2023-01-19T11:45:06.476Z,47.66
2023-01-19T11:47:52.613Z,48.97
2023-01-19T11:50:39.328Z,49.56
2023-01-19T11:53:34.283Z,52.10
2023-01-19T11:56:14.491Z,51.63
2023-01-19T11:58:46.828Z,51.36
2023-01-19T12:01:31.573Z,48.17
2023-01-19T12:04:11.324Z,47.58
2023-01-19T12:06:44.497Z,48.86
2023-01-19T12:09:42.573Z,48.25
2023-01-19T12:12:29.485Z,50.28
2023-01-19T12:15:11.153Z,49.63
2023-01-19T12:17:47.583Z,49.24
2023-01-19T12:20:39.130Z,49.43
2023-01-19T12:23:33.528Z,47.68
2023-01-19T12:26:24.768Z,48.63
2023-01-19T12:28:53.218Z,47.94
2023-01-19T12:31:22.692Z,48.63
2023-01-19T12:33:50.111Z,47.96
2023-01-19T12:36:16.851Z,49.01
2023-01-19T12:39:02.821Z,49.21
2023-01-19T12:41:35.760Z,47.37
2023-01-19T12:44:12.004Z,47.02
2023-01-19T12:47:06.331Z,45.75
2023-01-19T12:49:47.453Z,43.98
2023-01-19T12:52:34.301Z,43.55
2023-01-19T12:55:17.369Z,40.89
2023-01-19T12:58:01.308Z,41.41
2023-01-19T13:00:34.304Z,41.84
2023-01-19T13:03:16.644Z,42.92
2023-01-19T13:05:43.497Z,44.80
2023-01-19T13:08:10.297Z,46.10
2023-01-19T13:11:12.397Z,43.45
2023-01-19T13:13:48.222Z,43.60
2023-01-19T13:16:21.386Z,43.68
2023-01-19T13:19:06.719Z,43.81
2023-01-19T13:21:43.637Z,42.87
2023-01-19T13:24:22.476Z,42.61
2023-01-19T13:26:49.273Z,43.72
2023-01-19T13:29:35.072Z,45.32
2023-01-19T13:32:13.530Z,46.15
2023-01-19T13:34:52.434Z,47.49
2023-01-19T13:37:29.630Z,48.25
2023-01-19T13:39:57.172Z,49.60
2023-01-19T13:42:40.535Z,48.87
2023-01-19T13:45:36.935Z,48.52
2023-01-19T13:48:09.124Z,49.52
2023-01-19T13:50:39.241Z,49.20
2023-01-19T13:53:21.204Z,49.16
2023-01-19T13:55:48.102Z,49.57
2023-01-19T13:58:26.019Z,49.55
2023-01-19T14:00:53.189Z,49.84
2023-01-19T14:03:24.035Z,49.74
2023-01-19T14:05:53.277Z,49.69
2023-01-19T14:08:22.036Z,50.47
2023-01-19T14:10:56.169Z,50.17
2023-01-19T14:13:35.293Z,50.38
2023-01-19T14:16:10.645Z,50.40
2023-01-19T14:18:37.563Z,50.28
2023-01-19T14:21:09.081Z,51.31
2023-01-19T14:23:49.894Z,51.59
2023-01-19T14:26:48.929Z,50.83
2023-01-19T14:29:21.487Z,50.88
2023-01-19T14:32:06.088Z,50.96
2023-01-19T14:35:04.609Z,51.57
2023-01-19T14:37:34.919Z,51.74
2023-01-19T14:40:10.826Z,51.59
2023-01-19T14:42:45.655Z,51.84
2023-01-19T14:45:24.247Z,51.76
2023-01-19T14:48:04.940Z,52.26
2023-01-19T14:50:42.813Z,53.43
2023-01-19T14:53:24.415Z,52.91
2023-01-19T14:56:02.602Z,53.80
2023-01-19T14:58:32.938Z,53.09
2023-01-19T15:01:00.094Z,53.93
2023-01-19T15:03:43.398Z,54.14
2023-01-19T15:06:19.055Z,54.47
2023-01-19T15:08:47.276Z,54.17
2023-01-19T15:11:31.528Z,54.59
2023-01-19T15:13:59.194Z,54.39
2023-01-19T15:16:28.110Z,55.37
2023-01-19T15:18:55.270Z,54.07
2023-01-19T15:21:26.320Z,54.52
2023-01-19T15:23:54.692Z,54.99
2023-01-19T15:26:24.691Z,55.06
2023-01-19T15:28:52.046Z,54.83
2023-01-19T15:31:22.635Z,55.17
2023-01-19T15:33:50.039Z,55.33
2023-01-19T15:36:19.894Z,55.21
2023-01-19T15:38:47.510Z,55.45
2023-01-19T15:41:28.557Z,55.71
2023-01-19T15:43:55.508Z,56.68
2023-01-19T15:46:23.879Z,55.78
2023-01-19T15:48:51.410Z,56.16
2023-01-19T15:51:22.034Z,56.18
2023-01-19T15:53:49.946Z,56.64
2023-01-19T15:56:21.891Z,56.04
2023-01-19T15:58:49.064Z,56.43
2023-01-19T16:01:20.402Z,56.59
2023-01-19T16:03:47.783Z,56.03
2023-01-19T16:06:16.502Z,56.13
2023-01-19T16:08:43.639Z,56.25
2023-01-19T16:11:15.758Z,55.20
2023-01-19T16:13:46.376Z,55.46
2023-01-19T16:16:20.383Z,55.71
2023-01-19T16:18:47.448Z,55.26
2023-01-19T16:21:14.733Z,56.74
2023-01-19T16:23:41.833Z,57.51
2023-01-19T16:26:34.743Z,57.63
2023-01-19T16:29:10.338Z,57.25
2023-01-19T16:31:39.179Z,57.48
2023-01-19T16:34:06.657Z,57.16
2023-01-19T16:36:37.073Z,56.92
2023-01-19T16:39:11.595Z,56.70
2023-01-19T16:41:38.669Z,56.61
2023-01-19T16:44:06.929Z,56.65
2023-01-19T16:46:39.362Z,56.48
2023-01-19T16:49:11.609Z,56.28
2023-01-19T16:51:39.034Z,56.04
2023-01-19T16:54:06.070Z,56.03
2023-01-19T16:56:33.009Z,56.37
2023-01-19T16:58:59.960Z,56.56
2023-01-19T17:01:28.880Z,56.66
2023-01-19T17:03:56.435Z,56.46
2023-01-19T17:06:24.666Z,56.46
2023-01-19T17:08:52.977Z,56.51
2023-01-19T17:11:24.411Z,56.70
2023-01-19T17:14:00.433Z,56.80
2023-01-19T17:16:29.838Z,57.05
2023-01-19T17:18:58.448Z,57.04
2023-01-19T17:21:25.605Z,57.08
2023-01-19T17:23:55.061Z,57.40
2023-01-19T17:26:25.150Z,57.28
2023-01-19T17:28:52.555Z,57.39
2023-01-19T17:31:22.102Z,57.51
2023-01-19T17:33:50.463Z,57.43
2023-01-19T17:36:25.189Z,57.72
2023-01-19T17:38:58.202Z,57.77
2023-01-19T17:41:28.577Z,57.83
2023-01-19T17:43:55.918Z,57.62
2023-01-19T17:46:26.264Z,58.30
2023-01-19T17:48:55.278Z,58.03
2023-01-19T17:51:25.746Z,58.05
2023-01-19T17:53:53.584Z,58.42
2023-01-19T17:56:27.326Z,58.41
2023-01-19T17:58:54.446Z,58.60
2023-01-19T18:01:25.648Z,58.83
2023-01-19T18:03:53.070Z,58.78
2023-01-19T18:06:20.654Z,58.69
2023-01-19T18:08:48.644Z,58.58
2023-01-19T18:11:18.057Z,58.55
2023-01-19T18:13:47.989Z,58.33
2023-01-19T18:16:25.635Z,58.63
2023-01-19T18:18:54.087Z,58.27
2023-01-19T18:21:22.736Z,58.05
2023-01-19T18:23:50.893Z,58.32
2023-01-19T18:26:21.521Z,58.86
2023-01-19T18:28:49.549Z,58.89
2023-01-19T18:31:19.004Z,58.77
2023-01-19T18:33:47.356Z,59.25
2023-01-19T18:36:14.909Z,59.13
2023-01-19T18:38:42.920Z,59.17
2023-01-19T18:41:17.679Z,59.09
2023-01-19T18:43:45.275Z,59.14
2023-01-19T18:46:12.703Z,59.26
2023-01-19T18:48:40.073Z,59.55
2023-01-19T18:51:14.545Z,60.21
2023-01-19T18:53:42.437Z,59.74
2023-01-19T18:56:15.634Z,60.04
2023-01-19T18:58:43.237Z,60.22
2023-01-19T19:01:39.725Z,60.34
2023-01-19T19:04:08.121Z,59.44
2023-01-19T19:06:35.734Z,59.24
2023-01-19T19:09:03.291Z,59.35
2023-01-19T19:11:30.217Z,59.23
2023-01-19T19:14:02.256Z,59.67
2023-01-19T19:16:30.449Z,59.80
2023-01-19T19:18:57.487Z,59.58
2023-01-19T19:21:25.515Z,59.69
2023-01-19T19:23:54.866Z,60.22
2023-01-19T19:26:22.563Z,60.21
2023-01-19T19:28:49.698Z,59.97
2023-01-19T19:31:20.498Z,59.97
2023-01-19T19:33:48.986Z,60.25
2023-01-19T19:36:15.936Z,59.74
2023-01-19T19:38:44.497Z,59.59
2023-01-19T19:41:22.386Z,59.49
2023-01-19T19:43:50.057Z,59.70
2023-01-19T19:46:20.079Z,59.42
2023-01-19T19:48:51.234Z,58.78
2023-01-19T19:51:26.918Z,59.10
2023-01-19T19:53:57.331Z,59.05
2023-01-19T19:56:26.283Z,59.17
2023-01-19T19:58:56.137Z,59.16
2023-01-19T20:01:32.587Z,59.72
2023-01-19T20:04:07.465Z,60.15
2023-01-19T20:06:39.731Z,59.75
2023-01-19T20:09:09.236Z,59.82
2023-01-19T20:11:36.570Z,60.21
2023-01-19T20:14:08.156Z,60.16
2023-01-19T20:16:35.562Z,59.97
2023-01-19T20:19:02.824Z,60.08
2023-01-19T20:21:36.179Z,60.09
2023-01-19T20:24:08.131Z,60.25
2023-01-19T20:26:40.147Z,60.33
2023-01-19T20:29:07.170Z,60.53
2023-01-19T20:31:38.350Z,60.51
2023-01-19T20:34:08.115Z,60.08
2023-01-19T20:36:35.610Z,59.36
2023-01-19T20:39:08.534Z,59.62
2023-01-19T20:41:43.232Z,58.98
2023-01-19T20:44:16.708Z,59.72
2023-01-19T20:46:43.700Z,59.86
2023-01-19T20:49:10.588Z,59.67
2023-01-19T20:51:41.516Z,59.91
2023-01-19T20:54:08.960Z,59.74
2023-01-19T20:56:36.867Z,59.66
2023-01-19T20:59:03.893Z,59.88
2023-01-19T21:01:30.801Z,59.96
2023-01-19T21:03:57.754Z,60.41
2023-01-19T21:06:25.197Z,60.76
2023-01-19T21:08:52.317Z,61.01
2023-01-19T21:11:21.277Z,61.03
2023-01-19T21:13:50.589Z,61.09
2023-01-19T21:16:17.618Z,60.98
2023-01-19T21:18:44.479Z,61.09
2023-01-19T21:21:28.408Z,61.35
2023-01-19T21:23:57.957Z,61.35
2023-01-19T21:26:24.869Z,61.69
2023-01-19T21:28:51.736Z,62.06
2023-01-19T21:31:18.801Z,62.50
2023-01-19T21:33:45.684Z,62.95
2023-01-19T21:36:12.829Z,63.06
2023-01-19T21:38:39.927Z,63.14
2023-01-19T21:41:09.769Z,63.42
2023-01-19T21:43:38.996Z,63.62
2023-01-19T21:46:17.948Z,63.68
2023-01-19T21:48:45.880Z,63.81
2023-01-19T21:51:14.361Z,64.06
2023-01-19T21:53:41.819Z,64.36
2023-01-19T21:56:10.618Z,64.17
2023-01-19T21:58:38.018Z,64.18
2023-01-19T22:01:11.014Z,64.40
2023-01-19T22:03:38.416Z,64.35
2023-01-19T22:06:11.588Z,64.78
2023-01-19T22:08:39.312Z,64.62
2023-01-19T22:11:11.683Z,63.93
2023-01-19T22:13:39.680Z,63.61
2023-01-19T22:16:18.558Z,63.43
2023-01-19T22:18:50.547Z,63.62
2023-01-19T22:21:21.270Z,63.69
2023-01-19T22:23:53.032Z,63.26
2023-01-19T22:26:19.992Z,62.92
2023-01-19T22:28:47.504Z,63.07
2023-01-19T22:31:17.301Z,63.13
2023-01-19T22:33:45.203Z,62.90
2023-01-19T22:36:41.611Z,63.29
2023-01-19T22:39:11.229Z,63.32
2023-01-19T22:41:43.195Z,63.69
2023-01-19T22:44:22.465Z,63.81
2023-01-19T22:46:51.141Z,63.53
2023-01-19T22:49:18.523Z,63.23
2023-01-19T22:51:46.368Z,63.20
2023-01-19T22:54:13.963Z,63.28
2023-01-19T22:56:41.843Z,63.42
2023-01-19T22:59:09.495Z,63.11
2023-01-19T23:01:40.380Z,63.28
2023-01-19T23:04:11.904Z,63.01
2023-01-19T23:06:39.055Z,63.58
2023-01-19T23:09:12.046Z,63.78
2023-01-19T23:11:44.904Z,64.30
2023-01-19T23:14:18.334Z,64.36
2023-01-19T23:16:47.042Z,64.39
2023-01-19T23:19:14.912Z,64.33
2023-01-19T23:21:41.938Z,64.12
2023-01-19T23:24:09.747Z,64.16
2023-01-19T23:26:40.257Z,64.17
2023-01-19T23:29:17.354Z,64.40
2023-01-19T23:31:47.583Z,64.21
2023-01-19T23:34:15.485Z,64.07
2023-01-19T23:36:43.473Z,63.95
2023-01-19T23:39:20.085Z,63.97
2023-01-19T23:41:47.492Z,63.49
2023-01-19T23:44:14.767Z,63.54
2023-01-19T23:46:41.794Z,63.83
2023-01-19T23:49:08.651Z,63.51
2023-01-19T23:51:35.813Z,63.46
2023-01-19T23:54:03.261Z,63.32
2023-01-19T23:56:36.348Z,63.45
2023-01-19T23:59:10.288Z,63.13
